Last 6 Hours

AM-Summit 8643' (Ward Mt.)

15 Minute Data | America/Los_Angeles
as of 2/24/24 1:20 AM PST
Date & Time Temp (°F) RH (%) Dew Pt (°F) Wet Bulb (°F) Wind Dir (°) Wind Spd (mph) Wind Gust (mph) WindChill (°F)
2/24/24 - 0115 26.7 100 26.7 26.6 SSE | 166 1.6 5.2 -
2/24/24 - 0100 26.5 100 26.5 26.4 SSE | 165 5.7 6.9 20.0
2/24/24 - 0045 26.4 100 26.4 26.2 S | 170 6.0 7.9 19.6
2/24/24 - 0030 26.2 100 26.2 26.1 S | 181 7.7 9.8 18.0
2/24/24 - 0015 25.9 100 25.9 25.7 S | 182 10.2 12.3 16.0
2/24/24 - 0000 25.6 100 25.6 25.4 S | 183 11.5 13.8 15.0
2/23/24 - 2345 25.9 100 25.9 25.8 S | 190 2.6 7.6 -
2/23/24 - 2330 26.1 100 26.1 26.0 S | 176 0.7 2.5 -
2/23/24 - 2315 26.0 100 26.0 25.8 SSE | 166 2.9 8.6 -
2/23/24 - 2300 26.0 100 26.0 25.9 SSE | 150 5.2 8.6 19.9
2/23/24 - 2245 25.9 100 25.9 25.8 SE | 126 5.8 8.4 19.2
2/23/24 - 2230 26.1 100 26.1 26.0 E | 90 11.3 20.5 15.7
2/23/24 - 2215 26.1 100 26.1 26.0 E | 79 19.9 21.8 12.3
2/23/24 - 2200 26.0 100 26.0 25.8 ENE | 77 20.5 22.2 11.9
2/23/24 - 2145 25.9 100 25.9 25.8 ENE | 72 19.5 22.1 12.2
2/23/24 - 2130 26.0 100 26.0 25.8 ENE | 66 19.1 21.5 12.4
2/23/24 - 2115 26.1 100 26.1 26.0 ENE | 60 19.6 22.3 12.4
2/23/24 - 2100 26.2 100 26.2 26.1 ENE | 57 21.7 23.2 11.9
2/23/24 - 2045 26.4 100 26.4 26.3 NE | 54 18.7 21.0 13.1
2/23/24 - 2030 26.4 100 26.4 26.3 NE | 51 19.3 21.4 12.9
2/23/24 - 2015 26.5 100 26.5 26.3 NE | 54 20.0 22.4 12.7
2/23/24 - 2000 26.5 100 26.5 26.3 NE | 56 21.3 23.2 12.4
2/23/24 - 1945 26.6 100 26.6 26.4 ENE | 57 21.6 23.6 12.4
2/23/24 - 1930 26.7 100 26.7 26.6 NE | 50 20.0 22.2 13.0
Max 26.7 100 26.7 26.6 - 21.7 23.6 20.0
Avg 26.2 100 26.2 26.1 - 13.0 15.8 14.6
Min 25.6 100 25.6 25.4 - 0.7 2.5 11.9